MSC Sinfonia — H8XH — position and weather

sailwx.info

Track history (hours):
 
Tides and Currents Weather Stations Pressure Air Temp Water Temp Dewpoint Dewpoint Depression Visibility Wind Speed Wind Dir Waves Ship Positions

MSC Sinfonia

Last reported at 2016-Feb-05 14:18 UTC. Time now 2016-Feb-05 23:54 UTC.
Position S 29°36' E 031°32'.

Length 251 m; draft 6.8 m.

Type: Passenger vessel. MMSI: 356715971.

Date/timePositionNaut miles runAvg speedWind from/ knotsBaromVisibWave heightAir tempDewpointWater temp
2016-Feb-05 14:18S 29°36' E 031°32'1418.3
2016-Feb-05 13:33S 29°45' E 031°20'1616.1
2016-Feb-05 12:34S 29°52' E 031°04'1 1.3
2016-Feb-05 11:33S 29°52' E 031°02'0 0.0
2016-Feb-05 10:33S 29°52' E 031°02'0 0.0
2016-Feb-05 09:33S 29°52' E 031°02'0 0.0
2016-Feb-05 08:34S 29°52' E 031°02'0 0.0
2016-Feb-05 07:33S 29°52' E 031°02'0 0.0
2016-Feb-05 06:33S 29°52' E 031°02'0 0.0
2016-Feb-05 05:33S 29°52' E 031°02'0 0.0
2016-Feb-05 04:34S 29°52' E 031°02'  
2016-Jan-31 15:03S 29°27' E 031°43'918.7
2016-Jan-31 14:33S 29°34' E 031°36'1818.3
2016-Jan-31 13:33S 29°46' E 031°21'1515.0
2016-Jan-31 12:33S 29°51' E 031°04'2 2.2
2016-Jan-31 11:33S 29°52' E 031°02'0 0.0
2016-Jan-31 10:33S 29°52' E 031°02'0 0.0
2016-Jan-31 09:33S 29°52' E 031°02'0 0.0
2016-Jan-31 08:33S 29°52' E 031°02'0 0.0
2016-Jan-31 07:33S 29°52' E 031°02'0 0.0
2016-Jan-31 06:33S 29°52' E 031°02'0 0.0
2016-Jan-31 05:33S 29°52' E 031°02'0 0.0
2016-Jan-31 04:33S 29°52' E 031°02'0 0.0
2016-Jan-31 03:33S 29°52' E 031°02'3 2.6
2016-Jan-31 02:33S 29°51' E 031°05'1010.0
2016-Jan-31 01:33S 29°48' E 031°16'1010.0
2016-Jan-31 00:33S 29°43' E 031°26'1010.3
2016-Jan-30 23:33S 29°36' E 031°34'1010.0
2016-Jan-30 22:33S 29°30' E 031°43'10 9.8
2016-Jan-30 21:30S 29°23' E 031°53'1110.0
2016-Jan-30 20:23S 29°17' E 032°03'8 9.2
2016-Jan-30 19:33S 29°12' E 032°10'1210.3
2016-Jan-30 18:23S 29°04' E 032°20'8 9.3
2016-Jan-30 17:33S 28°58' E 032°25'9 9.1
2016-Jan-30 16:33S 28°49' E 032°26'10 9.7
2016-Jan-30 15:33S 28°39' E 032°29'67 3.2
2016-Jan-29 18:15S 29°34' E 031°45'4 6.5
2016-Jan-29 17:33S 29°38' E 031°41'7 7.0
2016-Jan-29 16:33S 29°42' E 031°36'7 7.1
2016-Jan-29 15:33S 29°44' E 031°27'7 7.2
2016-Jan-29 14:33S 29°47' E 031°20'7 7.2
2016-Jan-29 13:33S 29°49' E 031°12'7 7.2
2016-Jan-29 12:33S 29°51' E 031°04'2 2.2
2016-Jan-29 11:33S 29°52' E 031°02'0 0.0
2016-Jan-29 10:33S 29°52' E 031°02'0 0.0
2016-Jan-29 09:30S 29°52' E 031°02'0 0.0
2016-Jan-29 08:33S 29°52' E 031°02'0 0.0
2016-Jan-29 07:33S 29°52' E 031°02'0 0.0
2016-Jan-29 06:33S 29°52' E 031°02'0 0.0
2016-Jan-29 05:33S 29°52' E 031°02'0 0.0
2016-Jan-29 04:33S 29°52' E 031°02'0 0.0
2016-Jan-29 03:33S 29°52' E 031°02'3 3.3
2016-Jan-29 02:33S 29°50' E 031°05'1313.4
2016-Jan-29 01:34S 29°47' E 031°20'1414.2
2016-Jan-29 00:34S 29°37' E 031°32'1414.2
2016-Jan-28 23:34S 29°27' E 031°43'  
Track history (hours):
 
Tides and Currents Weather Stations Pressure Air Temp Water Temp Dewpoint Dewpoint Depression Visibility Wind Speed Wind Dir Waves Ship Positions

MSC Sinfonia

Last reported at 2016-Feb-05 14:18 UTC. Time now 2016-Feb-05 23:54 UTC.
Position S 29°36' E 031°32'.

Length 251 m; draft 6.8 m.

Type: Passenger vessel. MMSI: 356715971.

Date/timePositionNaut miles runAvg speedWind from/ knotsBaromVisibWave heightAir tempDewpointWater temp
2016-Feb-05 14:18S 29°36' E 031°32'1418.3
2016-Feb-05 13:33S 29°45' E 031°20'1616.1
2016-Feb-05 12:34S 29°52' E 031°04'1 1.3
2016-Feb-05 11:33S 29°52' E 031°02'0 0.0
2016-Feb-05 10:33S 29°52' E 031°02'0 0.0
2016-Feb-05 09:33S 29°52' E 031°02'0 0.0
2016-Feb-05 08:34S 29°52' E 031°02'0 0.0
2016-Feb-05 07:33S 29°52' E 031°02'0 0.0
2016-Feb-05 06:33S 29°52' E 031°02'0 0.0
2016-Feb-05 05:33S 29°52' E 031°02'0 0.0
2016-Feb-05 04:34S 29°52' E 031°02'  
2016-Jan-31 15:03S 29°27' E 031°43'918.7
2016-Jan-31 14:33S 29°34' E 031°36'1818.3
2016-Jan-31 13:33S 29°46' E 031°21'1515.0
2016-Jan-31 12:33S 29°51' E 031°04'2 2.2
2016-Jan-31 11:33S 29°52' E 031°02'0 0.0
2016-Jan-31 10:33S 29°52' E 031°02'0 0.0
2016-Jan-31 09:33S 29°52' E 031°02'0 0.0
2016-Jan-31 08:33S 29°52' E 031°02'0 0.0
2016-Jan-31 07:33S 29°52' E 031°02'0 0.0
2016-Jan-31 06:33S 29°52' E 031°02'0 0.0
2016-Jan-31 05:33S 29°52' E 031°02'0 0.0
2016-Jan-31 04:33S 29°52' E 031°02'0 0.0
2016-Jan-31 03:33S 29°52' E 031°02'3 2.6
2016-Jan-31 02:33S 29°51' E 031°05'1010.0
2016-Jan-31 01:33S 29°48' E 031°16'1010.0
2016-Jan-31 00:33S 29°43' E 031°26'1010.3
2016-Jan-30 23:33S 29°36' E 031°34'1010.0
2016-Jan-30 22:33S 29°30' E 031°43'10 9.8
2016-Jan-30 21:30S 29°23' E 031°53'1110.0
2016-Jan-30 20:23S 29°17' E 032°03'8 9.2
2016-Jan-30 19:33S 29°12' E 032°10'1210.3
2016-Jan-30 18:23S 29°04' E 032°20'8 9.3
2016-Jan-30 17:33S 28°58' E 032°25'9 9.1
2016-Jan-30 16:33S 28°49' E 032°26'10 9.7
2016-Jan-30 15:33S 28°39' E 032°29'67 3.2
2016-Jan-29 18:15S 29°34' E 031°45'4 6.5
2016-Jan-29 17:33S 29°38' E 031°41'7 7.0
2016-Jan-29 16:33S 29°42' E 031°36'7 7.1
2016-Jan-29 15:33S 29°44' E 031°27'7 7.2
2016-Jan-29 14:33S 29°47' E 031°20'7 7.2
2016-Jan-29 13:33S 29°49' E 031°12'7 7.2
2016-Jan-29 12:33S 29°51' E 031°04'2 2.2
2016-Jan-29 11:33S 29°52' E 031°02'0 0.0
2016-Jan-29 10:33S 29°52' E 031°02'0 0.0
2016-Jan-29 09:30S 29°52' E 031°02'0 0.0
2016-Jan-29 08:33S 29°52' E 031°02'0 0.0
2016-Jan-29 07:33S 29°52' E 031°02'0 0.0
2016-Jan-29 06:33S 29°52' E 031°02'0 0.0
2016-Jan-29 05:33S 29°52' E 031°02'0 0.0
2016-Jan-29 04:33S 29°52' E 031°02'0 0.0
2016-Jan-29 03:33S 29°52' E 031°02'3 3.3
2016-Jan-29 02:33S 29°50' E 031°05'1313.4
2016-Jan-29 01:34S 29°47' E 031°20'1414.2
2016-Jan-29 00:34S 29°37' E 031°32'1414.2
2016-Jan-28 23:34S 29°27' E 031°43'  

Dump ship's entire track history